Time;durP1;ratioP1;P1;durP2;ratioP2;P2;SDS_P1;SDS_P2;PMS_P1;PMS_P2;Temp;Humidity;BMP_temperature;BMP_pressure;BME280_temperature;BME280_humidity;BME280_pressure;Samples;Min_cycle;Max_cycle;Signal;HPM_P1;HPM_P2
2023/04/25 00:00:06;;;;;;;;;;;;;;;19.20;58.69;98051.91;2085016;28;19959;-49
2023/04/25 00:01:08;;;;;;;;;;;;;;;19.18;58.80;98056.66;2086885;28;19963;-46
2023/04/25 00:02:09;;;;;;;;;;;;;;;19.19;58.77;98050.25;2083410;28;19994;-47
2023/04/25 00:03:10;;;;;;;;;;;;;;;19.19;58.96;98058.31;2083800;28;21758;-50
2023/04/25 00:04:11;;;;;;;;;;;;;;;19.20;58.61;98059.97;2085913;28;19936;-50
2023/04/25 00:05:14;;;;;;;;;;;;;;;19.18;58.74;98049.41;2085729;28;20291;-46
2023/04/25 00:06:15;;;;;;;;;;;;;;;19.19;58.81;98058.31;2084632;28;19928;-47
2023/04/25 00:07:16;;;;;;;;;;;;;;;19.19;58.74;98059.16;2086542;28;20375;-48
2023/04/25 00:08:17;;;;;;;;;;;;;;;19.20;58.66;98054.59;2088417;28;20077;-48
2023/04/25 00:09:18;;;;;;;;;;;;;;;19.20;58.70;98054.59;2083287;28;19982;-48
2023/04/25 00:10:19;;;;;;;;;;;;;;;19.19;58.77;98053.78;2085894;28;19936;-49
2023/04/25 00:11:20;;;;;;;;;;;;;;;19.16;58.97;98056.88;2085724;28;19960;-50
2023/04/25 00:12:22;;;;;;;;;;;;;;;19.18;58.77;98046.72;2084468;28;20025;-48
2023/04/25 00:13:25;;;;;;;;;;;;;;;19.18;58.88;98045.91;2084132;28;19932;-49
2023/04/25 00:14:25;;;;;;;;;;;;;;;19.18;58.78;98045.91;2083582;28;19932;-49
2023/04/25 00:15:27;;;;;;;;;;;;;;;19.18;58.63;98048.59;2084049;28;19935;-49
2023/04/25 00:16:28;;;;;;;;;;;;;;;19.18;58.62;98051.28;2084918;28;20055;-51
2023/04/25 00:17:31;;;;;;;;;;;;;;;19.19;58.64;98058.31;2084411;28;19928;-49
2023/04/25 00:18:33;;;;;;;;;;;;;;;19.17;58.95;98061.22;2085067;28;19932;-49
2023/04/25 00:19:34;;;;;;;;;;;;;;;19.18;58.54;98062.03;2083516;28;19932;-50
2023/04/25 00:20:35;;;;;;;;;;;;;;;19.18;58.52;98056.66;2084985;28;20424;-49
2023/04/25 00:21:37;;;;;;;;;;;;;;;19.16;58.65;98059.56;2083430;28;19940;-48
2023/04/25 00:22:37;;;;;;;;;;;;;;;19.17;58.78;98063.09;2084031;28;19970;-49
2023/04/25 00:23:39;;;;;;;;;;;;;;;19.17;58.67;98061.22;2084928;28;19932;-48
2023/04/25 00:24:39;;;;;;;;;;;;;;;19.16;58.81;98059.56;2084407;28;20690;-49
2023/04/25 00:25:41;;;;;;;;;;;;;;;19.18;58.60;98072.81;2085863;28;19947;-50
2023/04/25 00:26:41;;;;;;;;;;;;;;;19.16;58.90;98061.44;2085833;28;19928;-49
2023/04/25 00:27:44;;;;;;;;;;;;;;;19.15;58.88;98068.69;2087969;28;19998;-48
2023/04/25 00:28:45;;;;;;;;;;;;;;;19.14;58.62;98066.22;2085464;28;19929;-49
2023/04/25 00:29:46;;;;;;;;;;;;;;;19.14;58.76;98066.22;2084063;28;20002;-49
2023/04/25 00:30:47;;;;;;;;;;;;;;;19.14;58.49;98068.91;2084753;28;19944;-46
2023/04/25 00:31:48;;;;;;;;;;;;;;;19.14;58.69;98061.69;2084694;28;19940;-47
2023/04/25 00:32:49;;;;;;;;;;;;;;;19.15;58.63;98062.50;2085387;28;20383;-48
2023/04/25 00:33:51;;;;;;;;;;;;;;;19.15;58.67;98059.81;2087909;28;19950;-49
2023/04/25 00:34:51;;;;;;;;;;;;;;;19.13;58.59;98054.63;2085856;28;19932;-48
2023/04/25 00:35:52;;;;;;;;;;;;;;;19.14;58.78;98061.69;2084948;28;19944;-49
2023/04/25 00:36:53;;;;;;;;;;;;;;;19.14;58.62;98060.84;2084733;28;20485;-49
2023/04/25 00:37:55;;;;;;;;;;;;;;;19.11;58.73;98051.38;2085963;28;20027;-49
2023/04/25 00:38:55;;;;;;;;;;;;;;;19.12;58.78;98047.63;2085116;28;19933;-48
2023/04/25 00:39:58;;;;;;;;;;;;;;;19.13;58.89;98051.13;2085926;28;20527;-49
2023/04/25 00:40:59;;;;;;;;;;;;;;;19.14;58.62;98042.84;2085587;28;19924;-46
2023/04/25 00:42:01;;;;;;;;;;;;;;;19.13;58.65;98043.06;2086689;28;19967;-47
2023/04/25 00:43:03;;;;;;;;;;;;;;;19.13;58.91;98038.50;2084500;28;19939;-51
2023/04/25 00:44:06;;;;;;;;;;;;;;;19.09;58.64;98034.63;2085225;28;19978;-52
2023/04/25 00:45:09;;;;;;;;;;;;;;;19.09;58.97;98031.94;2085100;28;19979;-49
2023/04/25 00:46:11;;;;;;;;;;;;;;;19.11;58.78;98029.88;2087225;28;20129;-51
2023/04/25 00:47:11;;;;;;;;;;;;;;;19.11;58.75;98029.88;2085685;28;19947;-52
2023/04/25 00:48:14;;;;;;;;;;;;;;;19.12;58.88;98028.00;2086857;28;20409;-48
2023/04/25 00:49:15;;;;;;;;;;;;;;;19.12;58.75;98025.31;2085467;28;19935;-50
2023/04/25 00:50:16;;;;;;;;;;;;;;;19.12;58.77;98028.81;2085743;28;19932;-49
2023/04/25 00:51:19;;;;;;;;;;;;;;;19.10;58.92;98028.19;2086776;28;19925;-51
2023/04/25 00:52:21;;;;;;;;;;;;;;;19.12;58.66;98030.69;2085104;27;19929;-57
2023/04/25 00:53:21;;;;;;;;;;;;;;;19.10;58.70;98025.50;2088988;28;19932;-50
2023/04/25 00:54:23;;;;;;;;;;;;;;;19.12;58.86;98030.69;2084807;28;20002;-52
2023/04/25 00:55:24;;;;;;;;;;;;;;;19.11;58.59;98021.81;2085981;28;20339;-51
2023/04/25 00:56:25;;;;;;;;;;;;;;;19.10;59.03;98017.44;2086612;28;19986;-50
2023/04/25 00:57:26;;;;;;;;;;;;;;;19.08;58.71;98013.34;2086804;28;19933;-49
2023/04/25 00:58:29;;;;;;;;;;;;;;;19.09;58.91;98021.19;2087672;28;20087;-49
2023/04/25 00:59:30;;;;;;;;;;;;;;;19.10;58.71;98008.56;2086186;28;19952;-49
2023/04/25 01:00:32;;;;;;;;;;;;;;;19.09;58.74;98009.63;2087567;28;19932;-52
2023/04/25 01:01:32;;;;;;;;;;;;;;;19.09;58.68;98009.63;2084647;28;19970;-51
2023/04/25 01:02:35;;;;;;;;;;;;;;;19.09;58.64;98015.81;2079397;28;19929;-51
2023/04/25 01:03:40;;;;;;;;;;;;;;;19.09;58.47;98012.31;2077373;28;19929;-50
2023/04/25 01:04:42;;;;;;;;;;;;;;;19.08;58.61;98007.97;2076801;28;19983;-48
2023/04/25 01:05:43;;;;;;;;;;;;;;;19.07;58.69;98014.38;2078750;28;19937;-53
2023/04/25 01:06:44;;;;;;;;;;;;;;;19.08;59.00;98018.72;2079311;28;19933;-52
2023/04/25 01:07:45;;;;;;;;;;;;;;;19.07;58.73;98015.22;2078056;28;19925;-53
2023/04/25 01:08:46;;;;;;;;;;;;;;;19.08;58.81;98013.34;2077944;28;19979;-52
2023/04/25 01:09:47;;;;;;;;;;;;;;;19.08;58.64;98006.09;2079155;28;19929;-49
2023/04/25 01:10:48;;;;;;;;;;;;;;;19.08;58.72;98014.16;2078666;28;19982;-50
2023/04/25 01:11:49;;;;;;;;;;;;;;;19.07;58.83;98017.91;2080428;28;19991;-50
2023/04/25 01:12:50;;;;;;;;;;;;;;;19.05;58.47;98011.91;2079520;28;20346;-53
2023/04/25 01:13:52;;;;;;;;;;;;;;;19.06;58.61;98010.88;2080248;28;19924;-52
2023/04/25 01:14:54;;;;;;;;;;;;;;;19.06;58.64;98015.44;2078597;28;19943;-49
2023/04/25 01:15:54;;;;;;;;;;;;;;;19.07;58.59;98023.28;2080284;28;19986;-51
2023/04/25 01:16:56;;;;;;;;;;;;;;;19.08;58.87;98021.41;2083102;28;20295;-49
2023/04/25 01:17:56;;;;;;;;;;;;;;;19.06;58.79;98020.81;2080785;28;19933;-49
2023/04/25 01:18:58;;;;;;;;;;;;;;;19.05;58.66;98024.53;2080752;28;20074;-49
2023/04/25 01:19:59;;;;;;;;;;;;;;;19.05;58.60;98024.53;2078803;28;20046;-49
2023/04/25 01:21:06;;;;;;;;;;;;;;;19.05;58.77;98024.53;2078638;28;19998;-49
2023/04/25 01:22:10;;;;;;;;;;;;;;;19.04;58.72;98029.09;2078984;28;19937;-48
2023/04/25 01:23:11;;;;;;;;;;;;;;;19.05;58.58;98021.84;2078868;28;22056;-49
2023/04/25 01:24:12;;;;;;;;;;;;;;;19.04;58.90;98020.22;2077719;28;19928;-52
2023/04/25 01:25:14;;;;;;;;;;;;;;;19.05;58.71;98019.97;2079759;28;19936;-51
2023/04/25 01:26:15;;;;;;;;;;;;;;;19.05;58.63;98021.84;2076645;28;19936;-47
2023/04/25 01:27:16;;;;;;;;;;;;;;;19.04;58.98;98014.84;2077750;28;20456;-50
2023/04/25 01:28:17;;;;;;;;;;;;;;;19.05;58.94;98016.47;2076546;28;20142;-52
2023/04/25 01:29:18;;;;;;;;;;;;;;;19.04;58.89;98014.84;2078767;28;19928;-46
2023/04/25 01:30:19;;;;;;;;;;;;;;;19.04;58.63;98012.16;2078948;28;20354;-50
2023/04/25 01:31:21;;;;;;;;;;;;;;;19.03;58.75;98015.84;2078266;28;19925;-52
2023/04/25 01:32:22;;;;;;;;;;;;;;;19.04;58.88;98012.97;2078429;28;20307;-52
2023/04/25 01:33:23;;;;;;;;;;;;;;;19.03;58.60;98010.47;2077988;28;20287;-51
2023/04/25 01:34:24;;;;;;;;;;;;;;;19.02;58.60;98008.84;2076119;28;19991;-54
2023/04/25 01:35:26;;;;;;;;;;;;;;;19.05;58.40;98008.41;2078922;28;19929;-54
2023/04/25 01:36:28;;;;;;;;;;;;;;;19.04;58.63;98006.78;2077774;28;19929;-46
2023/04/25 01:37:29;;;;;;;;;;;;;;;19.03;58.52;98005.09;2077731;28;20286;-48
2023/04/25 01:38:30;;;;;;;;;;;;;;;19.00;58.63;98006.41;2076965;28;20756;-52
2023/04/25 01:39:31;;;;;;;;;;;;;;;19.01;58.73;98009.91;2077082;28;19999;-47
2023/04/25 01:40:33;;;;;;;;;;;;;;;19.01;58.58;98009.91;2079666;28;19925;-49
2023/04/25 01:41:35;;;;;;;;;;;;;;;19.02;58.80;98008.84;2077689;28;19929;-47
2023/04/25 01:42:36;;;;;;;;;;;;;;;19.02;58.65;98003.47;2076937;28;19937;-50
2023/04/25 01:43:37;;;;;;;;;;;;;;;19.01;58.83;98002.66;2076393;28;19928;-48
2023/04/25 01:44:38;;;;;;;;;;;;;;;19.01;58.59;98002.66;2075704;28;20175;-49
2023/04/25 01:45:40;;;;;;;;;;;;;;;19.02;58.70;97998.09;2078517;28;20387;-50
2023/04/25 01:46:41;;;;;;;;;;;;;;;19.01;58.59;98001.84;2080121;28;19951;-47
2023/04/25 01:47:43;;;;;;;;;;;;;;;19.01;58.63;98005.34;2078741;28;19931;-49
2023/04/25 01:48:43;;;;;;;;;;;;;;;19.00;58.63;98000.19;2078118;28;20652;-49
2023/04/25 01:49:45;;;;;;;;;;;;;;;18.99;58.88;98002.06;2077471;28;19925;-49
2023/04/25 01:50:45;;;;;;;;;;;;;;;19.00;58.80;97997.50;2077918;28;20282;-48
2023/04/25 01:51:48;;;;;;;;;;;;;;;18.98;58.74;98000.41;2078825;28;19929;-48
2023/04/25 01:52:49;;;;;;;;;;;;;;;18.97;58.67;98001.44;2077656;28;20009;-47
2023/04/25 01:53:51;;;;;;;;;;;;;;;18.98;58.58;97995.84;2077346;28;19932;-48
2023/04/25 01:54:52;;;;;;;;;;;;;;;18.98;58.69;97998.53;2077959;28;20495;-48
2023/04/25 01:55:54;;;;;;;;;;;;;;;19.00;58.76;97994.81;2077186;28;20879;-48
2023/04/25 01:56:57;;;;;;;;;;;;;;;18.99;58.61;97999.38;2077908;28;19962;-49
2023/04/25 01:57:59;;;;;;;;;;;;;;;18.97;58.58;97996.91;2074669;28;20501;-48
2023/04/25 01:58:59;;;;;;;;;;;;;;;18.98;58.63;97997.72;2076528;28;19963;-48
2023/04/25 02:00:04;;;;;;;;;;;;;;;18.96;58.73;97997.94;2076517;28;19935;-49
2023/04/25 02:01:04;;;;;;;;;;;;;;;18.97;58.79;97996.06;2078665;28;19952;-50
2023/04/25 02:02:06;;;;;;;;;;;;;;;18.97;58.86;97998.75;2079251;28;19956;-48
2023/04/25 02:03:07;;;;;;;;;;;;;;;18.97;58.79;98001.44;2078741;28;19974;-46
2023/04/25 02:04:09;;;;;;;;;;;;;;;18.97;58.82;97999.59;2075578;28;19936;-50
2023/04/25 02:05:09;;;;;;;;;;;;;;;18.97;58.52;97991.53;2078305;28;19978;-49
2023/04/25 02:06:11;;;;;;;;;;;;;;;18.97;58.41;97991.53;2077952;28;22093;-50
2023/04/25 02:07:12;;;;;;;;;;;;;;;18.95;58.36;97993.63;2077685;28;19937;-46
2023/04/25 02:08:30;;;;;;;;;;;;;;;18.97;58.57;97998.75;2077406;28;19948;-48
2023/04/25 02:09:30;;;;;;;;;;;;;;;18.96;58.80;97997.94;2069017;28;19933;-50
2023/04/25 02:10:31;;;;;;;;;;;;;;;18.95;58.95;97995.50;2074543;28;19925;-48
2023/04/25 02:11:32;;;;;;;;;;;;;;;18.94;58.42;97988.44;2075521;28;19956;-48
2023/04/25 02:12:33;;;;;;;;;;;;;;;18.96;58.52;97991.75;2078943;28;20032;-49
2023/04/25 02:13:34;;;;;;;;;;;;;;;18.95;58.60;97993.63;2086384;28;21232;-49
2023/04/25 02:14:35;;;;;;;;;;;;;;;18.95;58.65;97987.44;2085503;28;19992;-49
2023/04/25 02:15:36;;;;;;;;;;;;;;;18.94;58.82;97989.28;2082814;28;19932;-48
2023/04/25 02:16:39;;;;;;;;;;;;;;;18.95;58.55;97988.25;2086300;28;20001;-49
2023/04/25 02:17:39;;;;;;;;;;;;;;;18.94;58.60;97989.28;2086304;28;19960;-47
2023/04/25 02:18:41;;;;;;;;;;;;;;;18.94;58.58;97994.66;2084899;28;19939;-48
2023/04/25 02:19:41;;;;;;;;;;;;;;;18.95;58.67;97990.94;2086679;28;19925;-50
2023/04/25 02:20:43;;;;;;;;;;;;;;;18.91;58.86;97992.41;2080803;28;20001;-50
2023/04/25 02:21:43;;;;;;;;;;;;;;;18.92;58.69;97994.06;2085112;28;19985;-47
2023/04/25 02:22:46;;;;;;;;;;;;;;;18.94;58.57;97991.97;2079799;28;19975;-55
2023/04/25 02:23:48;;;;;;;;;;;;;;;18.93;58.77;97994.88;2083226;28;20099;-48
2023/04/25 02:24:50;;;;;;;;;;;;;;;18.91;58.87;97995.09;2086230;28;20302;-55
2023/04/25 02:25:50;;;;;;;;;;;;;;;18.92;58.60;97988.69;2082405;28;19929;-54
2023/04/25 02:26:52;;;;;;;;;;;;;;;18.92;58.57;97982.50;2083436;28;19936;-54
2023/04/25 02:27:53;;;;;;;;;;;;;;;18.93;58.61;97990.31;2085852;28;20857;-49
2023/04/25 02:28:55;;;;;;;;;;;;;;;18.92;58.81;97993.25;2082792;28;19943;-51
2023/04/25 02:29:55;;;;;;;;;;;;;;;18.91;58.86;97989.72;2083374;28;20272;-52
2023/04/25 02:30:56;;;;;;;;;;;;;;;18.92;58.81;97990.56;2084146;28;19981;-54
2023/04/25 02:31:57;;;;;;;;;;;;;;;18.91;58.56;97989.72;2081424;28;20899;-49
2023/04/25 02:32:58;;;;;;;;;;;;;;;18.90;58.79;97998.00;2086129;28;19932;-54
2023/04/25 02:33:59;;;;;;;;;;;;;;;18.89;58.49;97996.38;2082365;28;20487;-52
2023/04/25 02:35:03;;;;;;;;;;;;;;;18.89;58.66;97997.19;2083983;28;19971;-48
2023/04/25 02:36:04;;;;;;;;;;;;;;;18.89;58.61;97999.06;2085414;28;19929;-47
2023/04/25 02:37:06;;;;;;;;;;;;;;;18.92;58.85;97998.63;2085627;28;20032;-52
2023/04/25 02:38:08;;;;;;;;;;;;;;;18.91;58.79;97999.66;2086172;28;20353;-50
2023/04/25 02:39:10;;;;;;;;;;;;;;;18.90;58.75;97992.63;2084905;28;20394;-53
2023/04/25 02:40:11;;;;;;;;;;;;;;;18.90;58.56;97995.31;2085351;28;21398;-55
2023/04/25 02:41:12;;;;;;;;;;;;;;;18.89;58.50;97991.81;2086182;28;20416;-51
2023/04/25 02:42:13;;;;;;;;;;;;;;;18.89;58.52;97991.81;2086222;28;19929;-48
2023/04/25 02:43:14;;;;;;;;;;;;;;;18.87;58.56;97991.22;2085147;28;19978;-49
2023/04/25 02:44:15;;;;;;;;;;;;;;;18.86;58.59;97978.84;2084710;28;19936;-48
2023/04/25 02:45:16;;;;;;;;;;;;;;;18.87;58.89;97988.53;2084606;28;20426;-55
2023/04/25 02:46:17;;;;;;;;;;;;;;;18.88;58.85;97992.84;2087492;28;19932;-53
2023/04/25 02:47:18;;;;;;;;;;;;;;;18.87;58.75;97995.78;2086528;28;20517;-49
2023/04/25 02:48:19;;;;;;;;;;;;;;;18.87;58.79;97985.84;2087536;28;19933;-49
2023/04/25 02:49:20;;;;;;;;;;;;;;;18.86;58.42;97984.22;2080324;28;19933;-53
2023/04/25 02:50:21;;;;;;;;;;;;;;;18.85;59.00;97982.53;2085701;28;19925;-53
2023/04/25 02:51:22;;;;;;;;;;;;;;;18.83;58.88;97984.63;2085007;28;19925;-50
2023/04/25 02:52:23;;;;;;;;;;;;;;;18.86;58.81;97986.03;2085503;28;19929;-49
2023/04/25 02:53:25;;;;;;;;;;;;;;;18.86;58.69;97989.59;2085063;28;20002;-53
2023/04/25 02:54:26;;;;;;;;;;;;;;;18.86;58.72;97986.88;2086752;28;19929;-47
2023/04/25 02:55:27;;;;;;;;;;;;;;;18.86;58.83;97986.88;2085470;28;19998;-50
2023/04/25 02:56:28;;;;;;;;;;;;;;;18.86;58.64;97981.53;2086392;28;19929;-50
2023/04/25 02:57:28;;;;;;;;;;;;;;;18.86;58.90;97984.22;2086165;28;19943;-47
2023/04/25 02:58:30;;;;;;;;;;;;;;;18.86;58.62;97984.22;2086826;28;20475;-52
2023/04/25 02:59:30;;;;;;;;;;;;;;;18.86;58.63;97984.22;2083479;28;19933;-50
2023/04/25 03:00:32;;;;;;;;;;;;;;;18.86;58.63;97977.97;2086648;28;19924;-51
2023/04/25 03:01:32;;;;;;;;;;;;;;;18.85;58.88;97979.03;2085871;28;20000;-49
2023/04/25 03:02:34;;;;;;;;;;;;;;;18.83;58.90;97973.88;2087136;28;20266;-50
2023/04/25 03:03:34;;;;;;;;;;;;;;;18.85;58.94;97979.03;2086094;28;19939;-49
2023/04/25 03:04:36;;;;;;;;;;;;;;;18.83;58.64;97968.50;2082733;28;19970;-52
2023/04/25 03:05:36;;;;;;;;;;;;;;;18.83;58.75;97973.88;2087112;28;20551;-54
2023/04/25 03:06:38;;;;;;;;;;;;;;;18.85;58.59;97971.78;2086502;28;19985;-52
2023/04/25 03:07:39;;;;;;;;;;;;;;;18.85;58.84;97968.28;2084441;28;19928;-48
2023/04/25 03:08:42;;;;;;;;;;;;;;;18.85;58.51;97971.78;2084496;28;20302;-47
2023/04/25 03:09:43;;;;;;;;;;;;;;;18.85;58.60;97970.97;2087059;28;20318;-52
2023/04/25 03:10:44;;;;;;;;;;;;;;;18.84;58.39;97970.16;2085693;28;19925;-53
2023/04/25 03:11:45;;;;;;;;;;;;;;;18.84;58.63;97956.72;2086598;28;19960;-50
2023/04/25 03:12:46;;;;;;;;;;;;;;;18.82;58.76;97956.13;2086266;28;20379;-47
2023/04/25 03:13:47;;;;;;;;;;;;;;;18.83;58.66;97959.63;2084733;28;19929;-51
2023/04/25 03:14:48;;;;;;;;;;;;;;;18.84;58.68;97954.03;2085819;28;20269;-48
2023/04/25 03:15:49;;;;;;;;;;;;;;;18.84;58.46;97953.22;2084443;28;19928;-52
2023/04/25 03:16:50;;;;;;;;;;;;;;;18.81;58.65;97953.66;2085593;28;20585;-49
2023/04/25 03:17:51;;;;;;;;;;;;;;;18.81;58.56;97949.13;2085765;28;19986;-55
2023/04/25 03:18:52;;;;;;;;;;;;;;;18.82;58.87;97947.25;2084870;28;19990;-55
2023/04/25 03:19:52;;;;;;;;;;;;;;;18.84;58.61;97948.66;2084562;28;19959;-52
2023/04/25 03:20:54;;;;;;;;;;;;;;;18.83;58.80;97951.56;2083946;28;19925;-52
2023/04/25 03:21:54;;;;;;;;;;;;;;;18.82;58.83;97949.94;2085085;28;19989;-52
2023/04/25 03:22:56;;;;;;;;;;;;;;;18.80;58.79;97944.75;2085886;28;19936;-49
2023/04/25 03:23:57;;;;;;;;;;;;;;;18.81;58.61;97954.47;2087410;28;20061;-47
2023/04/25 03:24:59;;;;;;;;;;;;;;;18.81;58.61;97946.44;2085857;28;20001;-51
2023/04/25 03:25:59;;;;;;;;;;;;;;;18.82;58.87;97949.94;2083849;28;19965;-52
2023/04/25 03:27:01;;;;;;;;;;;;;;;18.80;58.63;97946.63;2086589;28;19967;-52
2023/04/25 03:28:02;;;;;;;;;;;;;;;18.81;58.67;97945.63;2084526;28;19928;-52
2023/04/25 03:29:03;;;;;;;;;;;;;;;18.81;58.70;97943.75;2086078;28;19924;-52
2023/04/25 03:30:04;;;;;;;;;;;;;;;18.80;58.61;97939.38;2088585;28;19969;-52
2023/04/25 03:31:06;;;;;;;;;;;;;;;18.81;58.60;97941.06;2087019;28;19936;-49
2023/04/25 03:32:06;;;;;;;;;;;;;;;18.80;58.46;97935.88;2086370;28;19957;-49
2023/04/25 03:33:08;;;;;;;;;;;;;;;18.79;58.83;97940.44;2084822;28;19948;-50
2023/04/25 03:34:08;;;;;;;;;;;;;;;18.79;58.55;97935.06;2085142;28;19932;-51
2023/04/25 03:35:10;;;;;;;;;;;;;;;18.81;58.58;97945.63;2084585;28;20337;-55
2023/04/25 03:36:11;;;;;;;;;;;;;;;18.80;58.62;97947.44;2085402;28;20027;-53
2023/04/25 03:37:11;;;;;;;;;;;;;;;18.81;58.56;97943.75;2082429;28;20068;-50
2023/04/25 03:38:13;;;;;;;;;;;;;;;18.79;58.79;97945.81;2087130;28;20997;-50
2023/04/25 03:39:15;;;;;;;;;;;;;;;18.80;58.57;97942.06;2087573;28;19958;-47
2023/04/25 03:40:16;;;;;;;;;;;;;;;18.78;58.67;97938.81;2084565;28;19928;-47
2023/04/25 03:41:17;;;;;;;;;;;;;;;18.78;58.85;97937.97;2083184;28;19936;-51
2023/04/25 03:42:19;;;;;;;;;;;;;;;18.77;58.38;97936.34;2084609;28;19929;-46
2023/04/25 03:43:20;;;;;;;;;;;;;;;18.78;58.69;97937.97;2084232;28;19974;-54
2023/04/25 03:44:21;;;;;;;;;;;;;;;18.77;58.47;97931.78;2084959;28;20180;-49
2023/04/25 03:45:22;;;;;;;;;;;;;;;18.76;58.59;97932.84;2086748;28;19928;-48
2023/04/25 03:46:23;;;;;;;;;;;;;;;18.74;58.78;97922.28;2087545;28;19933;-48
2023/04/25 03:47:23;;;;;;;;;;;;;;;18.75;58.68;97923.97;2085798;28;19932;-46
2023/04/25 03:48:25;;;;;;;;;;;;;;;18.73;58.80;97926.00;2087277;28;19925;-52
2023/04/25 03:49:26;;;;;;;;;;;;;;;18.72;58.53;97924.38;2086199;28;20344;-48
2023/04/25 03:50:27;;;;;;;;;;;;;;;18.74;58.67;97921.47;2084714;28;19938;-46
2023/04/25 03:51:28;;;;;;;;;;;;;;;18.75;58.62;97915.09;2084560;28;20330;-51
2023/04/25 03:52:29;;;;;;;;;;;;;;;18.74;58.85;97921.47;2086202;28;19925;-46
2023/04/25 03:53:31;;;;;;;;;;;;;;;18.73;58.60;97915.25;2083309;28;19929;-52
2023/04/25 03:54:33;;;;;;;;;;;;;;;18.75;58.43;97923.13;2087173;28;19929;-53
2023/04/25 03:55:34;;;;;;;;;;;;;;;18.74;58.47;97919.59;2084940;28;19976;-53
2023/04/25 03:56:35;;;;;;;;;;;;;;;18.72;58.54;97921.69;2084586;27;19928;-46
2023/04/25 03:57:36;;;;;;;;;;;;;;;18.72;58.47;97912.78;2084658;28;19935;-51
2023/04/25 03:58:37;;;;;;;;;;;;;;;18.71;58.60;97917.34;2086889;28;20498;-52
2023/04/25 03:59:38;;;;;;;;;;;;;;;18.74;58.78;97916.09;2083788;28;20028;-50
2023/04/25 04:00:39;;;;;;;;;;;;;;;18.72;58.35;97912.78;2086622;28;20379;-46
2023/04/25 04:01:40;;;;;;;;;;;;;;;18.73;58.80;97906.38;2084052;28;20059;-47
2023/04/25 04:02:40;;;;;;;;;;;;;;;18.71;58.49;97911.97;2087402;28;19985;-49
2023/04/25 04:03:42;;;;;;;;;;;;;;;18.72;58.47;97902.03;2086608;28;22349;-51
2023/04/25 04:04:43;;;;;;;;;;;;;;;18.70;58.49;97904.16;2085164;28;19936;-47
2023/04/25 04:05:46;;;;;;;;;;;;;;;18.72;58.77;97899.34;2084947;28;20306;-51
2023/04/25 04:06:47;;;;;;;;;;;;;;;18.71;58.35;97895.84;2087066;28;20256;-51
2023/04/25 04:07:48;;;;;;;;;;;;;;;18.71;58.71;97905.78;2085596;28;20614;-49
2023/04/25 04:08:49;;;;;;;;;;;;;;;18.71;58.60;97901.22;2083895;28;19936;-49
2023/04/25 04:09:52;;;;;;;;;;;;;;;18.72;58.65;97902.88;2085607;28;20859;-51
2023/04/25 04:10:52;;;;;;;;;;;;;;;18.72;58.57;97900.19;2086855;28;19928;-51
2023/04/25 04:11:54;;;;;;;;;;;;;;;18.72;58.45;97900.19;2085801;28;20351;-54
2023/04/25 04:12:54;;;;;;;;;;;;;;;18.71;58.66;97900.41;2086987;28;20325;-54
2023/04/25 04:13:56;;;;;;;;;;;;;;;18.72;58.56;97900.19;2085333;28;19967;-50
2023/04/25 04:14:56;;;;;;;;;;;;;;;18.74;58.76;97905.34;2087357;28;20069;-49
2023/04/25 04:15:57;;;;;;;;;;;;;;;18.72;58.31;97896.66;2088453;28;19932;-50
2023/04/25 04:16:58;;;;;;;;;;;;;;;18.71;58.39;97898.53;2088073;28;19940;-48
2023/04/25 04:18:02;;;;;;;;;;;;;;;18.69;58.40;97897.09;2084903;28;19932;-52
2023/04/25 04:19:02;;;;;;;;;;;;;;;18.70;58.83;97901.47;2085205;28;20059;-50
2023/04/25 04:20:07;;;;;;;;;;;;;;;18.71;58.49;97903.09;2085670;28;19943;-53
2023/04/25 04:21:07;;;;;;;;;;;;;;;18.71;58.62;97905.78;2086886;28;20341;-52
2023/04/25 04:22:09;;;;;;;;;;;;;;;18.69;58.41;97902.47;2089213;28;19928;-49
2023/04/25 04:23:10;;;;;;;;;;;;;;;18.70;58.53;97906.81;2088751;28;20398;-49
2023/04/25 04:24:11;;;;;;;;;;;;;;;18.69;58.92;97907.84;2087612;28;19932;-46
2023/04/25 04:25:13;;;;;;;;;;;;;;;18.71;58.74;97908.47;2085769;28;20435;-50
2023/04/25 04:26:16;;;;;;;;;;;;;;;18.68;58.42;97906.22;2084326;28;19929;-49
2023/04/25 04:27:18;;;;;;;;;;;;;;;18.67;58.69;97909.97;2087481;28;19977;-47
2023/04/25 04:28:19;;;;;;;;;;;;;;;18.68;58.60;97908.91;2089381;28;20394;-48
2023/04/25 04:29:20;;;;;;;;;;;;;;;18.67;58.62;97899.22;2087883;28;19975;-50
2023/04/25 04:30:23;;;;;;;;;;;;;;;18.68;58.66;97898.97;2086719;28;19933;-50
2023/04/25 04:31:24;;;;;;;;;;;;;;;18.68;58.74;97903.53;2086457;28;19975;-51
2023/04/25 04:32:27;;;;;;;;;;;;;;;18.68;58.63;97912.41;2088626;28;19947;-48
2023/04/25 04:33:27;;;;;;;;;;;;;;;18.66;58.44;97902.94;2085133;28;20418;-51
2023/04/25 04:34:30;;;;;;;;;;;;;;;18.65;58.73;97904.78;2083524;28;19943;-53
2023/04/25 04:35:31;;;;;;;;;;;;;;;18.65;58.44;97918.22;2086716;28;19924;-53
2023/04/25 04:36:32;;;;;;;;;;;;;;;18.67;58.74;97931.44;2087957;28;20015;-50
2023/04/25 04:37:33;;;;;;;;;;;;;;;18.66;58.56;97924.41;2084656;28;19940;-52
2023/04/25 04:38:34;;;;;;;;;;;;;;;18.64;58.39;97931.91;2087017;28;19982;-47
2023/04/25 04:39:35;;;;;;;;;;;;;;;18.63;58.78;97914.13;2082826;28;19978;-50
2023/04/25 04:40:38;;;;;;;;;;;;;;;18.63;58.54;97912.25;2083613;28;19929;-48
2023/04/25 04:41:38;;;;;;;;;;;;;;;18.63;58.46;97909.56;2084869;28;20482;-48
2023/04/25 04:42:40;;;;;;;;;;;;;;;18.64;58.87;97905.03;2087004;28;19933;-53
2023/04/25 04:43:41;;;;;;;;;;;;;;;18.64;58.53;97905.03;2084144;28;19936;-49
2023/04/25 04:44:44;;;;;;;;;;;;;;;18.64;58.48;97903.16;2085332;28;19928;-53
2023/04/25 04:45:44;;;;;;;;;;;;;;;18.64;58.51;97899.66;2084915;28;19936;-53
2023/04/25 04:46:46;;;;;;;;;;;;;;;18.64;58.62;97910.41;2084246;28;20422;-54
2023/04/25 04:47:48;;;;;;;;;;;;;;;18.63;58.58;97914.13;2086389;28;19929;-48
2023/04/25 04:48:49;;;;;;;;;;;;;;;18.63;58.50;97911.44;2088908;28;19935;-49
2023/04/25 04:49:50;;;;;;;;;;;;;;;18.62;58.85;97907.94;2077335;28;20025;-48
2023/04/25 04:50:51;;;;;;;;;;;;;;;18.62;58.84;97916.00;2083437;28;19941;-52
2023/04/25 04:51:52;;;;;;;;;;;;;;;18.62;58.75;97910.63;2086224;28;19982;-51
2023/04/25 04:52:55;;;;;;;;;;;;;;;18.61;58.46;97908.97;2087834;28;19937;-48
2023/04/25 04:53:58;;;;;;;;;;;;;;;18.64;58.65;97905.03;2084501;28;19939;-48
2023/04/25 04:54:59;;;;;;;;;;;;;;;18.62;58.68;97901.75;2088677;28;19939;-48
2023/04/25 04:56:01;;;;;;;;;;;;;;;18.61;58.74;97903.59;2082330;28;19936;-52
2023/04/25 04:57:02;;;;;;;;;;;;;;;18.62;58.58;97896.38;2086629;28;19955;-50
2023/04/25 04:58:03;;;;;;;;;;;;;;;18.63;58.64;97892.63;2085931;28;19928;-53
2023/04/25 04:59:04;;;;;;;;;;;;;;;18.62;58.73;97891.81;2086473;28;20437;-50
2023/04/25 05:00:10;;;;;;;;;;;;;;;18.62;58.58;97896.38;2084391;27;19932;-54
2023/04/25 05:01:11;;;;;;;;;;;;;;;18.62;58.58;97909.81;2085229;28;19934;-46
2023/04/25 05:02:12;;;;;;;;;;;;;;;18.61;58.50;97908.13;2085878;28;19932;-49
2023/04/25 05:03:13;;;;;;;;;;;;;;;18.61;58.67;97900.06;2084292;28;20414;-46
2023/04/25 05:04:14;;;;;;;;;;;;;;;18.60;58.73;97898.44;2075120;28;19950;-51
2023/04/25 05:05:15;;;;;;;;;;;;;;;18.61;58.64;97916.19;2077601;28;19937;-46
2023/04/25 05:06:16;;;;;;;;;;;;;;;18.60;58.63;97909.19;2075063;28;21778;-51
2023/04/25 05:07:17;;;;;;;;;;;;;;;18.60;58.51;97904.63;2077364;28;19928;-49
2023/04/25 05:08:18;;;;;;;;;;;;;;;18.60;58.76;97917.25;2073039;28;20507;-54
2023/04/25 05:09:20;;;;;;;;;;;;;;;18.59;58.38;97916.44;2077516;28;19928;-53
2023/04/25 05:10:20;;;;;;;;;;;;;;;18.60;58.49;97914.56;2078645;28;19941;-54
2023/04/25 05:11:23;;;;;;;;;;;;;;;18.59;58.36;97923.66;2075013;28;20019;-51
2023/04/25 05:12:23;;;;;;;;;;;;;;;18.60;58.68;97925.31;2075988;28;19929;-50
2023/04/25 05:13:25;;;;;;;;;;;;;;;18.59;58.59;97921.00;2077736;28;20315;-54
2023/04/25 05:14:25;;;;;;;;;;;;;;;18.59;58.45;97926.34;2075918;28;19982;-52
2023/04/25 05:15:27;;;;;;;;;;;;;;;18.59;58.54;97921.00;2075213;28;19936;-52
2023/04/25 05:16:27;;;;;;;;;;;;;;;18.59;58.42;97921.00;2075174;28;19956;-50
2023/04/25 05:17:29;;;;;;;;;;;;;;;18.60;58.72;97919.94;2077507;28;19933;-52
2023/04/25 05:18:29;;;;;;;;;;;;;;;18.58;58.72;97917.44;2078397;28;19929;-49
2023/04/25 05:19:31;;;;;;;;;;;;;;;18.58;58.51;97917.44;2077835;28;19933;-52